地図

経路データ

SID SEASON NUMBER BASIN SUBBASIN NAME ISO_TIME NATURE LAT LON WMO_WIND WMO_PRES WMO_AGENCY TRACK_TYPE DIST2LAND LANDFALL IFLAG USA_AGENCY USA_ATCF_ID USA_LAT USA_LON USA_RECORD USA_STATUS USA_WIND USA_PRES USA_SSHS USA_R34_NE USA_R34_SE USA_R34_SW USA_R34_NW USA_R50_NE USA_R50_SE USA_R50_SW USA_R50_NW USA_R64_NE USA_R64_SE USA_R64_SW USA_R64_NW USA_POCI USA_ROCI USA_RMW USA_EYE TOKYO_LAT TOKYO_LON TOKYO_GRADE TOKYO_WIND TOKYO_PRES TOKYO_R50_DIR TOKYO_R50_LONG TOKYO_R50_SHORT TOKYO_R30_DIR TOKYO_R30_LONG TOKYO_R30_SHORT TOKYO_LAND CMA_LAT CMA_LON CMA_CAT CMA_WIND CMA_PRES HKO_LAT HKO_LON HKO_CAT HKO_WIND HKO_PRES NEWDELHI_LAT NEWDELHI_LON NEWDELHI_GRADE NEWDELHI_WIND NEWDELHI_PRES NEWDELHI_CI NEWDELHI_DP NEWDELHI_POCI REUNION_LAT REUNION_LON REUNION_TYPE REUNION_WIND REUNION_PRES REUNION_TNUM REUNION_CI REUNION_RMW REUNION_R34_NE REUNION_R34_SE REUNION_R34_SW REUNION_R34_NW REUNION_R50_NE REUNION_R50_SE REUNION_R50_SW REUNION_R50_NW REUNION_R64_NE REUNION_R64_SE REUNION_R64_SW REUNION_R64_NW BOM_LAT BOM_LON BOM_TYPE BOM_WIND BOM_PRES BOM_TNUM BOM_CI BOM_RMW BOM_R34_NE BOM_R34_SE BOM_R34_SW BOM_R34_NW BOM_R50_NE BOM_R50_SE BOM_R50_SW BOM_R50_NW BOM_R64_NE BOM_R64_SE BOM_R64_SW BOM_R64_NW BOM_ROCI BOM_POCI BOM_EYE BOM_POS_METHOD BOM_PRES_METHOD NADI_LAT NADI_LON NADI_CAT NADI_WIND NADI_PRES WELLINGTON_LAT WELLINGTON_LON WELLINGTON_WIND WELLINGTON_PRES DS824_LAT DS824_LON DS824_STAGE DS824_WIND DS824_PRES TD9636_LAT TD9636_LON TD9636_STAGE TD9636_WIND TD9636_PRES TD9635_LAT TD9635_LON TD9635_WIND TD9635_PRES TD9635_ROCI NEUMANN_LAT NEUMANN_LON NEUMANN_CLASS NEUMANN_WIND NEUMANN_PRES MLC_LAT MLC_LON MLC_CLASS MLC_WIND MLC_PRES USA_GUST BOM_GUST BOM_GUST_PER REUNION_GUST REUNION_GUST_PER USA_SEAHGT USA_SEARAD_NE USA_SEARAD_SE USA_SEARAD_SW USA_SEARAD_NW STORM_SPEED STORM_DIR
1956097S18162 1956 35 SP MM NOT_NAMED 1956-04-05 12:00:00 TS -17.6000 161.500 main 399 376 O________OO___ jtwc_sh SH331956 -17.6000 161.500 -1 -17.6000 161.500 TC -17.6000 161.500 2 4 118
1956097S18162 1956 35 SP MM NOT_NAMED 1956-04-05 15:00:00 TS -17.6877 161.674 main 376 361 P________PP___ SH331956 -17.6776 161.670 -1 -17.6776 161.670 TC -17.7077 161.683 2 4 119
1956097S18162 1956 35 SP MM NOT_NAMED 1956-04-05 17:00:00 TS -17.7653 161.820 main 361 354 P________PP___ SH331956 -17.7515 161.813 -1 -17.7515 161.813 TC -17.7929 161.833 2 5 120
1956097S18162 1956 35 SP MM NOT_NAMED 1956-04-05 18:00:00 TS -17.8142 161.908 main 354 316 O________OP___ jtwc_sh SH331956 -17.8000 161.900 -1 -17.8000 161.900 TC -17.8425 161.923 2 7 121
1956097S18162 1956 35 SP MM NOT_NAMED 1956-04-05 21:00:00 TS -18.0134 162.261 main 310 273 P________PP___ SH331956 -18.0046 162.253 -1 -18.0046 162.253 TC -18.0311 162.276 2 9 120
1956097S18162 1956 35 SP MM NOT_NAMED 1956-04-05 23:00:00 TS -18.1942 162.595 main 273 252 P________PP___ SH331956 -18.1914 162.592 -1 -18.1914 162.592 TC -18.1999 162.603 2 12 119
1956097S18162 1956 35 SP MM NOT_NAMED 1956-04-06 00:00:00 TS -18.3000 162.800 main 252 189 O________OO___ jtwc_sh SH331956 -18.3000 162.800 -1 -18.3000 162.800 TC -18.3000 162.800 2 16 117
1956097S18162 1956 35 SP MM NOT_NAMED 1956-04-06 03:00:00 TS -18.6682 163.574 main 175 134 P________PP___ SH331956 -18.6704 163.597 -1 -18.6704 163.597 TC -18.6639 163.528 2 17 117
1956097S18162 1956 35 SP MM NOT_NAMED 1956-04-06 05:00:00 TS -18.9507 164.165 main 134 126 P________PP___ SH331956 -18.9532 164.201 -1 -18.9532 164.201 TC -18.9456 164.092 2 19 117
1956097S18162 1956 35 SP MM NOT_NAMED 1956-04-06 06:00:00 TS -19.0980 164.462 main 129 109 O________OP___ jtwc_sh SH331956 -19.1000 164.500 -1 -19.1000 164.500 TC -19.0939 164.387 2 19 119
1956097S18162 1956 35 SP MM NOT_NAMED 1956-04-06 09:00:00 TS -19.5555 165.327 main 114 114 P________PP___ SH331956 -19.5576 165.352 -1 -19.5576 165.352 TC -19.5515 165.278 2 18 122
1956097S18162 1956 35 SP MM NOT_NAMED 1956-04-06 11:00:00 TS -19.8681 165.794 main 118 109 P________PP___ SH331956 -19.8588 165.870 -1 -19.8588 165.870 TC -19.8537 165.840 2 14 134
1956097S18162 1956 35 SP MM NOT_NAMED 1956-04-06 12:00:00 TS -20.0304 165.854 main 115 106 O________OO___ jtwc_sh SH331956 -20.0000 166.100 -1 -20.0000 166.100 TC -20.0000 166.100 2 11 133
1956097S18162 1956 35 SP MM NOT_NAMED 1956-04-06 15:00:00 TS -20.3875 166.379 main 122 113 P________PP___ SH331956 -20.3568 166.638 -1 -20.3568 166.638 TC -20.3458 166.675 2 12 125
1956097S18162 1956 35 SP MM NOT_NAMED 1956-04-06 18:00:00 TS -20.7323 166.910 main 122 113 O________OP___ jtwc_sh SH331956 -20.7000 167.100 -1 -20.7000 167.100 TC -20.6859 167.171 2 12 125
1956097S18162 1956 35 SP MM NOT_NAMED 1956-04-06 21:00:00 TS -21.0875 167.441 main 121 121 P________PP___ SH331956 -21.0620 167.606 -1 -21.0620 167.606 TC -21.0583 167.657 2 12 126
1956097S18162 1956 35 SP MM NOT_NAMED 1956-04-06 23:00:00 TS -21.3392 167.790 main 129 121 P________PP___ SH331956 -21.3409 167.986 -1 -21.3409 167.986 TC -21.3428 168.008 2 12 128
1956097S18162 1956 35 SP MM NOT_NAMED 1956-04-07 00:00:00 TS -21.4731 167.965 main 129 129 O________OO___ jtwc_sh SH331956 -21.5000 168.200 -1 -21.5000 168.200 TC -21.5000 168.200 2 13 130
1956097S18162 1956 35 SP MM NOT_NAMED 1956-04-07 03:00:00 TS -21.9088 168.519 main 158 158 P________PP___ SH331956 -22.0627 168.970 -1 -22.0627 168.970 TC -22.0422 168.926 2 14 132
1956097S18162 1956 35 SP MM NOT_NAMED 1956-04-07 06:00:00 TS -22.4020 169.069 main 216 216 O________OP___ jtwc_sh SH331956 -22.7000 169.800 -1 -22.7000 169.800 TC -22.6544 169.719 2 14 136
1956097S18162 1956 35 SP MM NOT_NAMED 1956-04-07 09:00:00 TS -22.9372 169.606 main 275 275 P________PP___ SH331956 -23.3272 170.573 -1 -23.3272 170.573 TC -23.3141 170.527 2 15 139
1956097S18162 1956 35 SP MM NOT_NAMED 1956-04-07 11:00:00 TS -23.3361 169.962 main 327 330 P________PP___ SH331956 -23.7692 171.064 -1 -23.7692 171.064 TC -23.7697 171.049 2 16 141
1956097S18162 1956 35 SP MM NOT_NAMED 1956-04-07 12:00:00 TS -23.5522 170.145 main 348 348 O________OO___ jtwc_sh SH331956 -24.0000 171.300 -1 -24.0000 171.300 TC -24.0000 171.300 2 17 144
1956097S18162 1956 35 SP MM NOT_NAMED 1956-04-07 15:00:00 TS -24.2735 170.701 main 438 438 P________PP___ SH331956 -24.7496 171.973 -1 -24.7496 171.973 TC -24.7337 171.980 2 18 146
1956097S18162 1956 35 SP MM NOT_NAMED 1956-04-07 18:00:00 TS -25.0380 171.251 main 531 531 O________OP___ jtwc_sh SH331956 -25.5000 172.600 -1 -25.5000 172.600 TC -25.4806 172.617 2 18 147
1956097S18162 1956 35 SP MM NOT_NAMED 1956-04-07 21:00:00 TS -25.7873 171.779 main 624 624 P________PP___ SH331956 -26.2097 173.215 -1 -26.2097 173.215 TC -26.1872 173.220 2 17 147
1956097S18162 1956 35 SP MM NOT_NAMED 1956-04-07 23:00:00 TS -26.2579 172.115 main 682 682 P________PP___ SH331956 -26.6227 173.608 -1 -26.6227 173.608 TC -26.6095 173.609 2 16 147
1956097S18162 1956 35 SP MM NOT_NAMED 1956-04-08 00:00:00 TS -26.4760 172.275 main 712 712 O________OO___ jtwc_sh SH331956 -26.8000 173.800 -1 -26.8000 173.800 TC -26.8000 173.800 2 15 146
1956097S18162 1956 35 SP MM NOT_NAMED 1956-04-08 03:00:00 TS -27.0667 172.733 main 786 769 P________PP___ SH331956 -27.1947 174.359 -1 -27.1947 174.359 TC -27.2451 174.368 2 14 145
1956097S18162 1956 35 SP MM NOT_NAMED 1956-04-08 06:00:00 TS -27.6112 173.168 main 770 715 O________OP___ jtwc_sh SH331956 -27.5000 174.900 -1 -27.5000 174.900 TC -27.5955 174.913 2 13 145
1956097S18162 1956 35 SP MM NOT_NAMED 1956-04-08 09:00:00 TS -28.1623 173.595 main 705 673 P________PP___ SH331956 -27.8497 175.443 -1 -27.8497 175.443 TC -27.8983 175.452 2 13 145
1956097S18162 1956 35 SP MM NOT_NAMED 1956-04-08 11:00:00 TS -28.5208 173.888 main 674 653 P________PP___ SH331956 -28.0832 175.811 -1 -28.0832 175.811 TC -28.0967 175.815 2 13 144
1956097S18162 1956 35 SP MM NOT_NAMED 1956-04-08 12:00:00 TS -28.6975 174.038 main 653 607 O________OO___ jtwc_sh SH331956 -28.2000 176.000 -1 -28.2000 176.000 TC -28.2000 176.000 2 13 141
1956097S18162 1956 35 SP MM NOT_NAMED 1956-04-08 15:00:00 TS -29.2066 174.519 main 607 582 P________PP___ SH331956 -28.5423 176.593 -1 -28.5423 176.593 TC -28.5346 176.580 2 13 139
1956097S18162 1956 35 SP MM NOT_NAMED 1956-04-08 17:00:00 TS -29.5305 174.860 main 585 567 P________PP___ SH331956 -28.7775 176.998 -1 -28.7775 176.998 TC -28.7632 176.975 2 13 137
1956097S18162 1956 35 SP MM NOT_NAMED 1956-04-08 18:00:00 TS -29.6888 175.037 main 567 543 O________OP___ jtwc_sh SH331956 -28.9000 177.200 -1 -28.9000 177.200 TC -28.8815 177.174 2 13 132
1956097S18162 1956 35 SP MM NOT_NAMED 1956-04-08 21:00:00 TS -30.1079 175.604 main 547 536 P________PP___ SH331956 -29.2771 177.793 -1 -29.2771 177.793 TC -29.2626 177.781 2 13 129
1956097S18162 1956 35 SP MM NOT_NAMED 1956-04-08 23:00:00 TS -30.3761 176.029 main 536 541 P________PP___ SH331956 -29.5524 178.195 -1 -29.5524 178.195 TC -29.5466 178.192 2 16 114
1956097S18162 1956 35 SP MM NOT_NAMED 1956-04-09 00:00:00 TS -30.4317 176.456 main 562 558 O________OO___ jtwc_sh SH331956 -29.7000 178.400 -1 -29.7000 178.400 TC -29.7000 178.400 2 19 109
1956097S18162 1956 35 SP MM NOT_NAMED 1956-04-09 03:00:00 TS -30.7924 177.453 main 579 575 P________PP___ SH331956 -30.1623 179.043 -1 -30.1623 179.043 TC -30.2052 179.048 2 20 111
1956097S18162 1956 35 SP MM NOT_NAMED 1956-04-09 06:00:00 TS -31.1590 178.635 main 606 606 O________OP___ jtwc_sh SH331956 -30.7000 179.700 -1 -30.7000 179.700 TC -30.7675 179.708 2 22 109
1956097S18162 1956 35 SP MM NOT_NAMED 1956-04-09 09:00:00 TS -31.5344 179.913 main 669 668 P________PP___ SH331956 -31.3273 -179.642 -1 -31.3273 -179.642 TC -31.3709 -179.636 2 22 113
1956097S18162 1956 35 SP MM NOT_NAMED 1956-04-09 11:00:00 TS -31.8736 180.575 main 668 667 P________PP___ SH331956 -31.7754 -179.211 -1 -31.7754 -179.211 TC -31.7884 -179.209 2 21 117
1956097S18162 1956 35 SP MM NOT_NAMED 1956-04-09 12:00:00 TS -32.0000 181.000 main 670 630 O________OO___ jtwc_sh SH331956 -32.0000 -179.000 -1 -32.0000 181.000 TC -32.0000 -179.000 2 18 131
1956097S18162 1956 35 SP MM NOT_NAMED 1956-04-09 15:00:00 TS -32.6470 181.612 main 630 588 P________PP___ SH331956 -32.6497 -178.384 -1 -32.6497 -178.384 TC -32.6417 -178.397 2 16 142
1956097S18162 1956 35 SP MM NOT_NAMED 1956-04-09 18:00:00 TS -33.2970 182.193 main 588 561 O________OP___ jtwc_sh SH331956 -33.3000 -177.800 -1 -33.3000 182.200 TC -33.2911 -177.821 2 16 144
1956097S18162 1956 35 SP MM NOT_NAMED 1956-04-09 21:00:00 TS -33.9486 182.751 main 567 544 P________PP___ SH331956 -33.9505 -177.244 -1 -33.9505 -177.244 TC -33.9450 -177.259 2 16 145
1956097S18162 1956 35 SP MM NOT_NAMED 1956-04-10 00:00:00 TS -34.6000 183.300 main 544 O________OO___ jtwc_sh SH331956 -34.6000 -176.700 -1 -34.6000 183.300 TC -34.6000 -176.700 2 16 145

デジタル台風データ・検索

IBTrACS Databaseについて

本データベースは、米国NOAAが公開する1842年以降の世界の熱帯低気圧のベストトラックデータアーカイブInternational Best Track Archive for Climate Stewardship (IBTrACS)を、ウェブで閲覧しやすい形式に変換したものです。

最終更新日:2021-12-01